createdAt,value
2023-01-11T00:00:28.404Z,1.30
2023-01-11T00:03:00.354Z,1.15
2023-01-11T00:05:27.218Z,1.23
2023-01-11T00:07:54.242Z,1.30
2023-01-11T00:10:21.315Z,1.40
2023-01-11T00:12:48.870Z,1.65
2023-01-11T00:15:16.630Z,1.17
2023-01-11T00:17:43.412Z,1.63
2023-01-11T00:20:11.018Z,1.38
2023-01-11T00:22:38.233Z,1.42
2023-01-11T00:25:05.742Z,1.17
2023-01-11T00:27:33.050Z,1.25
2023-01-11T00:30:00.139Z,1.10
2023-01-11T00:32:27.377Z,1.30
2023-01-11T00:34:54.521Z,1.15
2023-01-11T00:37:21.529Z,1.20
2023-01-11T00:39:48.485Z,0.80
2023-01-11T00:42:33.879Z,0.93
2023-01-11T00:45:19.760Z,0.90
2023-01-11T00:48:00.149Z,1.08
2023-01-11T00:50:31.132Z,1.20
2023-01-11T00:52:59.101Z,0.90
2023-01-11T00:55:26.825Z,1.00
2023-01-11T00:57:54.093Z,0.88
2023-01-11T01:00:22.239Z,1.35
2023-01-11T01:02:49.354Z,0.90
2023-01-11T01:05:17.350Z,0.95
2023-01-11T01:07:44.880Z,1.35
2023-01-11T01:10:14.119Z,1.00
2023-01-11T01:12:59.645Z,1.40
2023-01-11T01:15:27.069Z,1.40
2023-01-11T01:17:55.247Z,1.15
2023-01-11T01:20:23.874Z,1.35
2023-01-11T01:22:51.062Z,0.93
2023-01-11T01:25:18.384Z,1.20
2023-01-11T01:27:45.575Z,1.17
2023-01-11T01:30:12.696Z,1.27
2023-01-11T01:32:39.889Z,1.30
2023-01-11T01:35:06.967Z,1.48
2023-01-11T01:37:33.937Z,1.30
2023-01-11T01:40:00.850Z,1.42
2023-01-11T01:42:27.753Z,1.20
2023-01-11T01:45:07.508Z,2.00
2023-01-11T01:47:44.363Z,1.70
2023-01-11T01:50:17.060Z,1.65
2023-01-11T01:52:48.126Z,1.77
2023-01-11T01:55:23.036Z,1.58
2023-01-11T01:57:50.908Z,1.60
2023-01-11T02:00:18.172Z,1.52
2023-01-11T02:02:46.068Z,1.95
2023-01-11T02:05:15.215Z,1.90
2023-01-11T02:07:44.421Z,1.98
2023-01-11T02:10:15.701Z,2.10
2023-01-11T02:12:51.894Z,2.20
2023-01-11T02:15:21.371Z,2.30
2023-01-11T02:17:48.347Z,2.33
2023-01-11T02:20:52.966Z,2.55
2023-01-11T02:23:52.578Z,2.42
2023-01-11T02:26:34.120Z,2.35
2023-01-11T02:29:15.080Z,2.20
2023-01-11T02:32:01.053Z,2.38
2023-01-11T02:34:51.331Z,2.30
2023-01-11T02:37:38.817Z,2.30
2023-01-11T02:40:17.112Z,2.33
2023-01-11T02:43:24.945Z,1.83
2023-01-11T02:46:05.917Z,2.20
2023-01-11T02:48:50.842Z,2.22
2023-01-11T02:51:26.556Z,1.80
2023-01-11T02:53:59.237Z,2.25
2023-01-11T02:56:29.719Z,2.00
2023-01-11T02:58:58.075Z,1.80
2023-01-11T03:01:25.727Z,2.60
2023-01-11T03:03:53.164Z,1.80
2023-01-11T03:06:27.233Z,1.67
2023-01-11T03:09:35.635Z,1.50
2023-01-11T03:12:26.810Z,1.80
2023-01-11T03:14:53.610Z,1.30
2023-01-11T03:17:38.928Z,1.42
2023-01-11T03:20:09.590Z,1.60
2023-01-11T03:23:14.709Z,1.70
2023-01-11T03:25:57.660Z,2.50
2023-01-11T03:28:36.315Z,1.95
2023-01-11T03:31:18.190Z,2.58
2023-01-11T03:34:31.421Z,2.88
2023-01-11T03:37:09.544Z,3.03
2023-01-11T03:40:04.764Z,2.88
2023-01-11T03:42:34.073Z,2.65
2023-01-11T03:45:02.929Z,2.45
2023-01-11T03:47:31.196Z,3.17
2023-01-11T03:50:11.218Z,3.03
2023-01-11T03:52:42.253Z,2.30
2023-01-11T03:55:12.207Z,3.05
2023-01-11T03:57:47.192Z,2.75
2023-01-11T04:00:14.523Z,2.80
2023-01-11T04:02:41.751Z,3.10
2023-01-11T04:05:10.457Z,3.47
2023-01-11T04:07:37.473Z,3.30
2023-01-11T04:10:05.506Z,3.17
2023-01-11T04:12:32.703Z,3.63
2023-01-11T04:14:59.590Z,3.58
2023-01-11T04:17:26.404Z,3.80
2023-01-11T04:19:53.187Z,3.25
2023-01-11T04:22:19.911Z,3.45
2023-01-11T04:24:46.725Z,3.45
2023-01-11T04:27:13.603Z,3.25
2023-01-11T04:29:40.806Z,3.10
2023-01-11T04:32:07.565Z,3.38
2023-01-11T04:34:34.400Z,3.47
2023-01-11T04:37:01.408Z,3.58
2023-01-11T04:39:28.296Z,3.38
2023-01-11T04:42:13.846Z,3.55
2023-01-11T04:44:40.691Z,3.30
2023-01-11T04:47:07.582Z,3.83
2023-01-11T04:49:34.405Z,3.15
2023-01-11T04:52:01.130Z,3.40
2023-01-11T04:54:27.875Z,4.07
2023-01-11T04:56:54.654Z,3.50
2023-01-11T04:59:21.437Z,4.13
2023-01-11T05:01:48.409Z,4.13
2023-01-11T05:04:15.548Z,3.53
2023-01-11T05:06:42.391Z,3.85
2023-01-11T05:09:14.872Z,3.97
2023-01-11T05:11:41.920Z,3.95
2023-01-11T05:14:09.206Z,3.85
2023-01-11T05:16:36.352Z,3.65
2023-01-11T05:19:04.731Z,4.03
2023-01-11T05:21:34.906Z,3.10
2023-01-11T05:24:04.263Z,3.25
2023-01-11T05:26:34.827Z,3.70
2023-01-11T05:29:04.898Z,3.88
2023-01-11T05:31:35.092Z,3.70
2023-01-11T05:34:02.060Z,3.92
2023-01-11T05:36:29.294Z,3.80
2023-01-11T05:38:57.095Z,3.60
2023-01-11T05:41:25.869Z,3.95
2023-01-11T05:44:12.330Z,4.18
2023-01-11T05:46:41.415Z,3.75
2023-01-11T05:49:09.630Z,4.95
2023-01-11T05:51:38.237Z,4.30
2023-01-11T05:54:07.072Z,3.85
2023-01-11T05:56:33.966Z,4.38
2023-01-11T05:59:00.786Z,3.75
2023-01-11T06:01:28.060Z,4.07
2023-01-11T06:03:54.844Z,4.03
2023-01-11T06:06:22.556Z,4.10
2023-01-11T06:08:49.662Z,4.40
2023-01-11T06:11:16.559Z,4.05
2023-01-11T06:13:43.383Z,4.13
2023-01-11T06:16:18.574Z,4.20
2023-01-11T06:18:48.142Z,3.72
2023-01-11T06:21:16.500Z,4.13
2023-01-11T06:23:46.762Z,3.42
2023-01-11T06:26:16.444Z,3.00
2023-01-11T06:28:43.561Z,2.88
2023-01-11T06:31:10.934Z,3.25
2023-01-11T06:33:38.311Z,3.65
2023-01-11T06:36:07.809Z,3.55
2023-01-11T06:38:35.511Z,3.40
2023-01-11T06:41:04.113Z,3.28
2023-01-11T06:43:32.546Z,2.88
2023-01-11T06:46:00.141Z,2.88
2023-01-11T06:48:27.999Z,2.95
2023-01-11T06:50:57.453Z,2.30
2023-01-11T06:53:28.317Z,2.30
2023-01-11T06:55:57.472Z,2.65
2023-01-11T06:58:25.866Z,2.58
2023-01-11T07:00:55.235Z,2.00
2023-01-11T07:03:24.370Z,2.45
2023-01-11T07:05:56.916Z,2.40
2023-01-11T07:08:25.645Z,2.75
2023-01-11T07:10:53.056Z,2.50
2023-01-11T07:13:20.201Z,2.13
2023-01-11T07:15:50.419Z,2.28
2023-01-11T07:18:18.913Z,2.17
2023-01-11T07:20:46.252Z,2.70
2023-01-11T07:23:13.308Z,2.55
2023-01-11T07:25:41.011Z,2.60
2023-01-11T07:28:08.984Z,2.13
2023-01-11T07:30:55.408Z,2.10
2023-01-11T07:33:23.032Z,2.28
2023-01-11T07:35:49.902Z,2.38
2023-01-11T07:38:16.789Z,2.30
2023-01-11T07:40:43.546Z,2.05
2023-01-11T07:43:15.895Z,1.90
2023-01-11T07:45:49.716Z,1.83
2023-01-11T07:48:26.178Z,2.03
2023-01-11T07:50:53.765Z,2.20
2023-01-11T07:53:21.161Z,1.85
2023-01-11T07:55:48.087Z,1.85
2023-01-11T07:58:15.761Z,2.00
2023-01-11T08:00:43.122Z,2.05
2023-01-11T08:03:10.841Z,2.10
2023-01-11T08:05:38.572Z,2.10
2023-01-11T08:08:06.252Z,1.70
2023-01-11T08:10:33.894Z,2.00
2023-01-11T08:13:19.739Z,2.15
2023-01-11T08:15:46.691Z,2.03
2023-01-11T08:18:13.789Z,2.78
2023-01-11T08:20:41.012Z,2.20
2023-01-11T08:23:10.234Z,1.95
2023-01-11T08:25:37.327Z,1.75
2023-01-11T08:28:06.377Z,1.90
2023-01-11T08:30:33.985Z,1.77
2023-01-11T08:33:02.288Z,1.90
2023-01-11T08:35:29.346Z,1.90
2023-01-11T08:37:56.576Z,2.17
2023-01-11T08:40:25.852Z,1.75
2023-01-11T08:42:56.846Z,2.30
2023-01-11T08:45:24.364Z,2.20
2023-01-11T08:47:52.002Z,1.60
2023-01-11T08:50:19.418Z,1.70
2023-01-11T08:52:47.349Z,1.98
2023-01-11T08:55:14.780Z,1.92
2023-01-11T08:57:41.799Z,2.08
2023-01-11T09:00:10.987Z,1.80
2023-01-11T09:02:37.834Z,1.90
2023-01-11T09:05:05.180Z,1.58
2023-01-11T09:07:32.345Z,2.17
2023-01-11T09:09:59.576Z,2.25
2023-01-11T09:12:27.707Z,1.80
2023-01-11T09:14:54.612Z,1.60
2023-01-11T09:17:21.553Z,0.98
2023-01-11T09:19:48.501Z,1.00
2023-01-11T09:22:16.216Z,1.25
2023-01-11T09:24:43.116Z,1.20
2023-01-11T09:27:11.661Z,1.20
2023-01-11T09:29:38.705Z,1.02
2023-01-11T09:32:06.189Z,0.85
2023-01-11T09:34:33.445Z,1.33
2023-01-11T09:37:02.715Z,1.02
2023-01-11T09:39:29.794Z,0.98
2023-01-11T09:42:11.585Z,0.95
2023-01-11T09:44:57.344Z,1.15
2023-01-11T09:47:36.843Z,0.80
2023-01-11T09:50:10.653Z,1.00
2023-01-11T09:52:42.130Z,1.05
2023-01-11T09:55:23.151Z,1.02
2023-01-11T09:58:24.141Z,1.25
2023-01-11T10:01:11.831Z,1.27
2023-01-11T10:04:13.999Z,1.60
2023-01-11T10:07:12.323Z,1.30
2023-01-11T10:18:40.980Z,1.10
2023-01-11T10:22:00.475Z,1.40
2023-01-11T10:24:56.352Z,1.40
2023-01-11T10:27:39.133Z,1.25
2023-01-11T10:30:32.733Z,1.60
2023-01-11T10:33:35.404Z,1.55
2023-01-11T10:36:37.787Z,1.45
2023-01-11T10:39:51.273Z,1.45
2023-01-11T10:42:23.666Z,1.38
2023-01-11T10:44:58.103Z,1.10
2023-01-11T10:47:41.173Z,1.80
2023-01-11T10:50:51.931Z,1.52
2023-01-11T10:53:53.848Z,1.42
2023-01-11T10:56:37.443Z,1.25
2023-01-11T11:00:07.754Z,1.20
2023-01-11T11:03:22.878Z,1.40
2023-01-11T11:05:56.738Z,1.67
2023-01-11T11:08:51.872Z,1.67
2023-01-11T11:11:36.805Z,1.48
2023-01-11T11:14:19.649Z,1.60
2023-01-11T11:17:01.646Z,1.45
2023-01-11T11:19:32.786Z,1.30
2023-01-11T11:22:00.483Z,1.90
2023-01-11T11:24:37.820Z,2.22
2023-01-11T11:27:26.051Z,1.60
2023-01-11T11:29:55.910Z,1.77
2023-01-11T11:32:30.412Z,1.83
2023-01-11T11:34:57.819Z,1.92
2023-01-11T11:37:39.550Z,1.90
2023-01-11T11:40:06.935Z,1.73
2023-01-11T11:42:34.119Z,1.65
2023-01-11T11:45:10.599Z,2.03
2023-01-11T11:47:37.898Z,1.83
2023-01-11T11:50:37.062Z,1.85
2023-01-11T11:53:07.413Z,1.80
2023-01-11T11:55:35.417Z,1.98
2023-01-11T11:58:08.565Z,4.25
2023-01-11T12:00:45.924Z,2.42
2023-01-11T12:03:15.943Z,2.00
2023-01-11T12:06:00.781Z,2.25
2023-01-11T12:08:29.981Z,2.25
2023-01-11T12:10:59.662Z,2.60
2023-01-11T12:13:38.221Z,2.75
2023-01-11T12:16:20.231Z,2.88
2023-01-11T12:18:47.547Z,3.13
2023-01-11T12:21:23.641Z,3.60
2023-01-11T12:24:17.219Z,3.15
2023-01-11T12:27:16.460Z,3.55
2023-01-11T12:30:20.231Z,3.38
2023-01-11T12:32:47.095Z,5.22
2023-01-11T12:35:18.808Z,4.32
2023-01-11T12:38:16.128Z,4.97
2023-01-11T12:41:16.854Z,4.28
2023-01-11T12:43:58.183Z,4.93
2023-01-11T12:47:00.421Z,4.30
2023-01-11T12:49:51.000Z,5.78
2023-01-11T12:52:17.813Z,5.40
2023-01-11T12:55:10.681Z,5.30
2023-01-11T12:58:00.346Z,5.82
2023-01-11T13:00:39.416Z,5.25
2023-01-11T13:03:15.346Z,4.70
2023-01-11T13:06:05.783Z,5.70
2023-01-11T13:08:38.216Z,5.80
2023-01-11T13:11:11.918Z,6.22
2023-01-11T13:14:02.023Z,5.03
2023-01-11T13:16:41.710Z,5.05
2023-01-11T13:19:21.187Z,4.85
2023-01-11T13:21:53.443Z,5.65
2023-01-11T13:24:29.544Z,4.10
2023-01-11T13:27:06.253Z,5.15
2023-01-11T13:29:43.928Z,5.35
2023-01-11T13:32:18.253Z,5.38
2023-01-11T13:34:57.419Z,4.93
2023-01-11T13:37:41.540Z,4.32
2023-01-11T13:40:18.969Z,4.65
2023-01-11T13:42:50.957Z,4.72
2023-01-11T13:45:30.197Z,4.70
2023-01-11T13:48:16.278Z,4.72
2023-01-11T13:51:20.971Z,5.15
2023-01-11T13:54:01.407Z,4.18
2023-01-11T13:56:31.205Z,4.20
2023-01-11T13:59:32.633Z,4.10
2023-01-11T14:02:05.379Z,4.22
2023-01-11T14:04:53.501Z,4.00
2023-01-11T14:07:37.711Z,3.40
2023-01-11T14:10:26.018Z,4.20
2023-01-11T14:13:56.259Z,4.05
2023-01-11T14:16:34.211Z,4.35
2023-01-11T14:19:27.755Z,4.28
2023-01-11T14:22:06.337Z,5.00
2023-01-11T14:24:37.731Z,4.30
2023-01-11T14:27:23.493Z,4.85
2023-01-11T14:29:55.368Z,4.47
2023-01-11T14:32:30.950Z,4.35
2023-01-11T14:35:36.050Z,5.00
2023-01-11T14:38:29.906Z,10.85
2023-01-11T14:41:11.484Z,3.72
2023-01-11T14:43:53.270Z,3.78
2023-01-11T14:46:20.068Z,5.13
2023-01-11T14:49:21.091Z,8.77
2023-01-11T14:52:09.681Z,5.10
2023-01-11T14:54:45.451Z,0.77
2023-01-11T14:57:41.893Z,1.50
2023-01-11T15:00:28.932Z,1.67
2023-01-11T15:03:01.780Z,1.65
2023-01-11T15:05:31.583Z,1.52
2023-01-11T15:08:13.175Z,1.90
2023-01-11T15:10:56.541Z,1.70
2023-01-11T15:13:35.613Z,1.95
2023-01-11T15:16:48.423Z,2.20
2023-01-11T15:19:34.069Z,3.13
2023-01-11T15:22:04.366Z,2.60
2023-01-11T15:24:41.848Z,2.33
2023-01-11T15:27:27.352Z,2.17
2023-01-11T15:29:57.817Z,2.03
2023-01-11T15:32:26.117Z,2.35
2023-01-11T15:34:53.478Z,2.55
2023-01-11T15:37:20.287Z,2.47
2023-01-11T15:39:51.994Z,3.10
2023-01-11T15:42:59.363Z,2.08
2023-01-11T15:46:20.219Z,2.78
2023-01-11T15:49:24.497Z,4.13
2023-01-11T15:52:13.087Z,4.20
2023-01-11T15:54:48.239Z,1.90
2023-01-11T15:57:30.077Z,3.15
2023-01-11T16:00:22.862Z,15.52
2023-01-11T16:02:49.558Z,3.30
2023-01-11T16:05:21.446Z,3.08
2023-01-11T16:07:59.948Z,5.50
2023-01-11T16:10:34.708Z,9.75
2023-01-11T16:13:01.421Z,17.23
2023-01-11T16:15:47.688Z,14.18
2023-01-11T16:18:21.682Z,9.32
2023-01-11T16:21:07.438Z,8.57
2023-01-11T16:23:34.635Z,7.32
2023-01-11T16:26:02.578Z,4.97
2023-01-11T16:28:29.554Z,5.93
2023-01-11T16:31:01.631Z,5.93
2023-01-11T16:33:30.833Z,3.53
2023-01-11T16:36:12.159Z,3.03
2023-01-11T16:38:52.682Z,4.93
2023-01-11T16:41:20.469Z,11.43
2023-01-11T16:43:58.514Z,9.93
2023-01-11T16:47:03.619Z,11.20
2023-01-11T16:49:30.668Z,10.15
2023-01-11T16:52:07.531Z,9.13
2023-01-11T16:54:35.384Z,8.73
2023-01-11T16:57:02.908Z,9.65
2023-01-11T16:59:30.816Z,9.55
2023-01-11T17:02:05.064Z,7.53
2023-01-11T17:04:37.747Z,9.23
2023-01-11T17:07:23.008Z,6.68
2023-01-11T17:09:50.399Z,6.47
2023-01-11T17:12:23.467Z,5.05
2023-01-11T17:15:28.210Z,7.15
2023-01-11T17:17:55.093Z,4.60
2023-01-11T17:20:27.334Z,6.13
2023-01-11T17:22:54.635Z,6.40
2023-01-11T17:25:29.592Z,8.88
2023-01-11T17:28:04.633Z,7.63
2023-01-11T17:30:32.529Z,7.20
2023-01-11T17:32:59.785Z,5.50
2023-01-11T17:35:30.814Z,5.30
2023-01-11T17:38:05.706Z,4.90
2023-01-11T17:40:36.091Z,6.40
2023-01-11T17:43:35.283Z,6.07
2023-01-11T17:46:04.759Z,5.20
2023-01-11T17:48:32.514Z,7.00
2023-01-11T17:51:01.415Z,5.68
2023-01-11T17:53:34.329Z,5.90
2023-01-11T17:56:04.292Z,6.28
2023-01-11T17:58:34.649Z,5.50
2023-01-11T18:01:04.458Z,5.05
2023-01-11T18:03:42.959Z,4.93
2023-01-11T18:06:28.921Z,3.88
2023-01-11T18:08:57.764Z,4.28
2023-01-11T18:11:34.468Z,4.38
2023-01-11T18:14:05.244Z,5.50
2023-01-11T18:16:32.457Z,4.97
2023-01-11T18:19:00.429Z,3.90
2023-01-11T18:21:50.275Z,3.40
2023-01-11T18:24:24.708Z,3.85
2023-01-11T18:27:30.791Z,6.72
2023-01-11T18:30:01.390Z,6.93
2023-01-11T18:32:36.538Z,8.82
2023-01-11T18:35:03.694Z,10.38
2023-01-11T18:37:30.964Z,8.43
2023-01-11T18:39:59.234Z,6.65
2023-01-11T18:42:29.849Z,10.40
2023-01-11T18:44:56.775Z,10.35
2023-01-11T18:47:26.628Z,7.90
2023-01-11T18:49:53.880Z,8.77
2023-01-11T18:52:24.620Z,7.32
2023-01-11T18:54:51.867Z,7.00
2023-01-11T18:57:18.669Z,7.10
2023-01-11T18:59:46.756Z,7.82
2023-01-11T19:02:17.791Z,26.50
2023-01-11T19:04:45.851Z,4.95
2023-01-11T19:07:13.838Z,5.50
2023-01-11T19:09:41.055Z,3.03
2023-01-11T19:12:08.244Z,1.85
2023-01-11T19:14:35.181Z,4.53
2023-01-11T19:17:04.281Z,4.10
2023-01-11T19:19:31.317Z,5.60
2023-01-11T19:21:58.360Z,6.43
2023-01-11T19:24:25.329Z,4.95
2023-01-11T19:26:52.300Z,4.90
2023-01-11T19:29:19.253Z,2.70
2023-01-11T19:31:46.805Z,3.30
2023-01-11T19:34:14.276Z,3.20
2023-01-11T19:36:41.464Z,3.42
2023-01-11T19:39:08.702Z,3.65
2023-01-11T19:41:54.786Z,4.25
2023-01-11T19:44:29.685Z,3.55
2023-01-11T19:47:10.058Z,3.80
2023-01-11T19:49:38.786Z,4.55
2023-01-11T19:52:13.195Z,3.30
2023-01-11T19:54:44.463Z,1.92
2023-01-11T19:57:18.885Z,4.00
2023-01-11T19:59:46.232Z,5.05
2023-01-11T20:02:15.180Z,6.22
2023-01-11T20:04:42.150Z,6.88
2023-01-11T20:07:10.501Z,10.85
2023-01-11T20:09:37.989Z,19.77
2023-01-11T20:12:06.531Z,19.98
2023-01-11T20:14:34.087Z,9.27
2023-01-11T20:17:01.128Z,4.97
2023-01-11T20:19:28.119Z,5.10
2023-01-11T20:21:55.919Z,4.53
2023-01-11T20:24:28.339Z,5.22
2023-01-11T20:26:56.642Z,3.95
2023-01-11T20:29:23.440Z,5.05
2023-01-11T20:31:50.518Z,4.38
2023-01-11T20:34:18.018Z,3.20
2023-01-11T20:36:45.755Z,3.50
2023-01-11T20:39:12.653Z,3.50
2023-01-11T20:41:49.836Z,2.90
2023-01-11T20:44:21.629Z,3.60
2023-01-11T20:46:49.026Z,3.97
2023-01-11T20:49:17.416Z,4.03
2023-01-11T20:51:45.787Z,3.15
2023-01-11T20:54:13.662Z,4.53
2023-01-11T20:56:41.671Z,4.45
2023-01-11T20:59:09.413Z,4.60
2023-01-11T21:01:36.843Z,4.00
2023-01-11T21:04:09.133Z,7.97
2023-01-11T21:06:38.303Z,7.65
2023-01-11T21:09:07.472Z,4.97
2023-01-11T21:11:35.152Z,4.65
2023-01-11T21:14:04.403Z,3.13
2023-01-11T21:16:31.715Z,2.70
2023-01-11T21:19:03.407Z,2.65
2023-01-11T21:21:33.141Z,3.00
2023-01-11T21:24:02.129Z,2.13
2023-01-11T21:26:29.987Z,3.08
2023-01-11T21:28:59.875Z,3.50
2023-01-11T21:31:31.412Z,3.08
2023-01-11T21:33:59.583Z,2.20
2023-01-11T21:36:27.958Z,2.08
2023-01-11T21:38:56.741Z,2.33
2023-01-11T21:41:44.596Z,2.20
2023-01-11T21:44:13.022Z,1.88
2023-01-11T21:46:40.952Z,2.35
2023-01-11T21:49:08.631Z,1.83
2023-01-11T21:51:36.130Z,2.13
2023-01-11T21:54:08.819Z,1.52
2023-01-11T21:56:36.357Z,1.95
2023-01-11T21:59:03.478Z,1.50
2023-01-11T22:01:30.598Z,2.10
2023-01-11T22:03:57.755Z,1.60
2023-01-11T22:06:24.871Z,1.48
2023-01-11T22:08:51.758Z,1.88
2023-01-11T22:11:18.897Z,1.92
2023-01-11T22:13:45.774Z,2.10
2023-01-11T22:16:15.729Z,2.05
2023-01-11T22:18:43.014Z,2.30
2023-01-11T22:21:12.735Z,1.77
2023-01-11T22:23:40.245Z,1.38
2023-01-11T22:26:11.909Z,1.70
2023-01-11T22:28:57.822Z,1.77
2023-01-11T22:31:27.490Z,1.38
2023-01-11T22:33:54.978Z,1.88
2023-01-11T22:36:24.279Z,1.30
2023-01-11T22:38:51.585Z,1.33
2023-01-11T22:41:19.079Z,1.80
2023-01-11T22:43:46.510Z,1.50
2023-01-11T22:46:19.214Z,2.00
2023-01-11T22:48:49.187Z,1.73
2023-01-11T22:51:18.214Z,1.85
2023-01-11T22:53:46.965Z,1.70
2023-01-11T22:56:16.183Z,2.38
2023-01-11T22:58:42.932Z,2.08
2023-01-11T23:01:15.301Z,2.42
2023-01-11T23:03:42.891Z,2.00
2023-01-11T23:06:10.525Z,1.95
2023-01-11T23:08:40.894Z,2.00
2023-01-11T23:11:35.651Z,1.73
2023-01-11T23:14:08.203Z,1.98
2023-01-11T23:16:36.266Z,1.90
2023-01-11T23:19:05.020Z,2.00
2023-01-11T23:21:32.013Z,1.50
2023-01-11T23:24:01.098Z,1.88
2023-01-11T23:26:28.549Z,1.85
2023-01-11T23:28:55.420Z,1.70
2023-01-11T23:31:24.002Z,1.77
2023-01-11T23:33:53.421Z,1.70
2023-01-11T23:36:22.446Z,1.63
2023-01-11T23:38:49.676Z,1.50
2023-01-11T23:41:37.201Z,1.50
2023-01-11T23:44:11.592Z,2.05
2023-01-11T23:46:58.225Z,2.03
2023-01-11T23:49:25.425Z,1.65
2023-01-11T23:51:53.204Z,1.58
2023-01-11T23:54:20.726Z,1.38
2023-01-11T23:56:47.705Z,2.38
2023-01-11T23:59:15.120Z,2.10
